Return to UIUC Weather Page  
Time Weather Temp Dew Pt Relative Humidity Winds Speed Gust Visibility Pressure Heat Index Wind Chill
Today
9:53PM Clear 69 68 96% N 5 mph 8 mi 1012.7 mb 29.92 in
7:53PM Cloudy 72 72 100% N 3 mph 7 mi 1012.2 mb 29.89 in
5:53PM Mostly Cloudy 73 72 96% N 6 mph 10 mi 1010.9 mb 29.85 in
4:26PM Mostly Cloudy 73 72 96% NW 9 mph 9 mi 1010.2 mb 29.83 in
2:53PM Light rain 77 72 84% N 14 mph 24 mph 10 mi 1009.9 mb 29.82 in
1:53PM Mostly Cloudy 73 70 90% NW 12 mph 10 mi 1010.2 mb 29.83 in
1:53PM Mostly Cloudy 73 70 90% NW 12 mph 10 mi 1010.2 mb 29.83 in
10:53AM Cloudy 73 68 84% N 16 mph 10 mi 1010.5 mb 29.84 in
10:35AM Cloudy 72 68 87% N 13 mph 10 mi 1010.5 mb 29.84 in
9:31AM Cloudy 72 68 87% N 17 mph 23 mph 10 mi 1010.2 mb 29.83 in
7:53AM Cloudy 70 68 93% N 16 mph 10 mi 1009.4 mb 29.82 in
7:53AM Cloudy 70 68 93% N 16 mph 10 mi 1009.4 mb 29.82 in
4:53AM Cloudy 68 66 93% NW 13 mph 10 mi 1009.2 mb 29.80 in
4:53AM Cloudy 68 66 93% NW 13 mph 10 mi 1009.2 mb 29.80 in
4:39AM Cloudy 68 66 93% NW 13 mph 9 mi 1009.2 mb 29.80 in
4:32AM Cloudy 68 66 93% NW 11 mph 9 mi 1009.2 mb 29.80 in
4:08AM Cloudy 68 66 93% NW 12 mph 9 mi 1008.8 mb 29.79 in
4:01AM Cloudy 68 66 93% NW 10 mph 9 mi 1008.8 mb 29.79 in
3:53AM Cloudy 68 68 100% NW 10 mph 8 mi 1008.8 mb 29.79 in
3:53AM Cloudy 68 68 100% NW 10 mph 8 mi 1008.8 mb 29.79 in
3:39AM Light rain 68 68 100% NW 11 mph 7 mi 1009.2 mb 29.80 in
2:53AM Cloudy 68 68 100% NW 9 mph 10 mi 1009.2 mb 29.80 in
1:53AM Cloudy 68 66 93% NW 11 mph 10 mi 1009.2 mb 29.80 in
1:53AM Cloudy 68 66 93% NW 11 mph 10 mi 1009.2 mb 29.80 in
12:53AM Cloudy 68 66 93% NW 11 mph 10 mi 1009.5 mb 29.81 in
12:53AM Cloudy 68 66 93% NW 11 mph 10 mi 1009.5 mb 29.81 in
Yesterday
Time Weather Temp Dew Pt Relative Humidity Winds Speed Gust Visibility Pressure Heat Index Wind Chill
11:53PM Clear 66 66 100% NW 9 mph 10 mi 1009.1 mb 29.81 in
10:53PM Partly Cloudy 66 66 100% NW 8 mph 10 mi 1009.2 mb 29.81 in
9:53PM Clear 68 66 93% NW 8 mph 10 mi 1009.6 mb 29.83 in
Observations made at University of Illinois Willard Airport